createdAt,value
2019-04-23T00:00:26.505Z,4.70
2019-04-23T00:02:58.559Z,4.83
2019-04-23T00:08:07.367Z,5.10
2019-04-23T00:13:19.745Z,4.90
2019-04-23T00:15:23.279Z,4.20
2019-04-23T00:17:55.381Z,4.72
2019-04-23T00:20:25.723Z,5.40
2019-04-23T00:23:00.214Z,4.70
2019-04-23T00:28:01.807Z,4.90
2019-04-23T00:30:36.265Z,4.97
2019-04-23T00:33:04.017Z,4.53
2019-04-23T00:35:25.518Z,5.05
2019-04-23T00:37:54.984Z,5.20
2019-04-23T00:40:25.856Z,5.00
2019-04-23T00:42:55.309Z,4.92
2019-04-23T00:45:34.661Z,5.08
2019-04-23T00:47:54.775Z,4.85
2019-04-23T00:50:38.249Z,4.90
2019-04-23T00:53:01.857Z,5.00
2019-04-23T00:55:28.185Z,5.12
2019-04-23T00:57:57.826Z,5.33
2019-04-23T01:02:59.802Z,5.05
2019-04-23T01:05:29.458Z,4.87
2019-04-23T01:07:58.258Z,5.05
2019-04-23T01:10:29.208Z,4.80
2019-04-23T01:12:59.161Z,5.20
2019-04-23T01:15:36.021Z,4.72
2019-04-23T01:18:05.150Z,5.62
2019-04-23T01:20:28.417Z,5.20
2019-04-23T01:22:35.866Z,5.20
2019-04-23T01:25:13.804Z,4.90
2019-04-23T01:27:54.805Z,5.80
2019-04-23T01:30:27.709Z,4.97
2019-04-23T01:32:54.548Z,5.28
2019-04-23T01:35:25.266Z,5.62
2019-04-23T01:38:02.608Z,4.83
2019-04-23T01:40:35.157Z,4.95
2019-04-23T01:43:02.970Z,5.08
2019-04-23T01:45:27.333Z,4.60
2019-04-23T01:48:16.101Z,5.20
2019-04-23T01:50:37.400Z,5.22
2019-04-23T01:53:08.662Z,4.92
2019-04-23T01:55:34.501Z,5.00
2019-04-23T01:58:21.902Z,5.50
2019-04-23T02:00:36.958Z,4.65
2019-04-23T02:03:01.137Z,5.45
2019-04-23T02:05:39.687Z,5.22
2019-04-23T02:08:03.539Z,5.47
2019-04-23T02:10:41.546Z,4.58
2019-04-23T02:15:38.124Z,5.20
2019-04-23T02:18:08.001Z,5.50
2019-04-23T02:20:39.900Z,5.00
2019-04-23T02:23:14.923Z,5.40
2019-04-23T02:25:44.339Z,5.15
2019-04-23T02:28:04.774Z,5.15
2019-04-23T02:30:54.955Z,5.33
2019-04-23T02:33:19.566Z,5.03
2019-04-23T02:38:11.680Z,5.12
2019-04-23T02:40:47.085Z,6.08
2019-04-23T02:48:19.834Z,5.80
2019-04-23T02:50:39.459Z,5.72
2019-04-23T02:53:18.185Z,4.95
2019-04-23T02:55:43.153Z,5.37
2019-04-23T02:58:12.722Z,5.20
2019-04-23T03:08:08.363Z,5.28
2019-04-23T03:11:04.781Z,5.10
2019-04-23T03:13:19.753Z,5.40
2019-04-23T03:20:53.512Z,5.60
2019-04-23T03:28:11.917Z,5.50
2019-04-23T03:31:21.205Z,5.10
2019-04-23T03:36:14.104Z,5.85
2019-04-23T03:40:36.956Z,5.08
2019-04-23T03:45:56.503Z,5.37
2019-04-23T03:48:17.182Z,4.72
2019-04-23T03:50:43.494Z,5.28
2019-04-23T03:53:03.335Z,5.37
2019-04-23T03:58:12.497Z,5.60
2019-04-23T04:00:47.990Z,5.70
2019-04-23T04:08:13.301Z,6.10
2019-04-23T04:10:44.564Z,5.55
2019-04-23T04:13:11.835Z,5.50
2019-04-23T04:18:21.331Z,6.10
2019-04-23T04:20:40.500Z,5.50
2019-04-23T04:23:17.329Z,6.30
2019-04-23T04:25:39.342Z,5.70
2019-04-23T04:28:11.592Z,6.08
2019-04-23T04:33:19.640Z,5.55
2019-04-23T04:35:35.030Z,5.62
2019-04-23T04:38:18.249Z,6.05
2019-04-23T04:40:38.788Z,5.50
2019-04-23T04:43:14.027Z,6.40
2019-04-23T04:48:00.489Z,5.70
2019-04-23T04:50:45.925Z,5.92
2019-04-23T04:53:16.745Z,5.33
2019-04-23T04:55:41.768Z,5.95
2019-04-23T05:00:43.864Z,5.50
2019-04-23T05:13:13.893Z,5.62
2019-04-23T05:15:25.754Z,5.20
2019-04-23T05:20:30.672Z,5.58
2019-04-23T05:25:17.907Z,5.72
2019-04-23T05:28:03.116Z,5.97
2019-04-23T05:30:22.610Z,5.80
2019-04-23T05:32:48.957Z,5.72
2019-04-23T05:35:42.819Z,5.83
2019-04-23T05:37:59.005Z,5.55
2019-04-23T05:40:35.571Z,5.37
2019-04-23T05:42:49.757Z,6.12
2019-04-23T05:45:15.861Z,5.60
2019-04-23T05:47:50.934Z,5.60
2019-04-23T05:50:31.941Z,6.33
2019-04-23T05:52:45.822Z,6.85
2019-04-23T05:55:16.915Z,5.80
2019-04-23T05:57:44.569Z,6.45
2019-04-23T06:00:19.427Z,6.03
2019-04-23T06:02:50.215Z,6.20
2019-04-23T06:07:42.680Z,7.97
2019-04-23T06:10:14.602Z,6.70
2019-04-23T06:12:37.076Z,5.75
2019-04-23T06:15:18.050Z,6.08
2019-04-23T06:17:38.010Z,6.50
2019-04-23T06:20:10.188Z,6.10
2019-04-23T06:25:13.176Z,6.37
2019-04-23T06:27:39.346Z,5.92
2019-04-23T06:30:01.664Z,6.03
2019-04-23T06:32:58.012Z,6.37
2019-04-23T06:35:08.778Z,5.90
2019-04-23T06:37:49.847Z,6.37
2019-04-23T06:40:03.170Z,6.58
2019-04-23T06:42:32.521Z,6.33
2019-04-23T06:45:01.273Z,6.53
2019-04-23T06:47:29.840Z,6.20
2019-04-23T06:50:01.598Z,6.65
2019-04-23T06:52:43.794Z,6.60
2019-04-23T06:55:06.803Z,6.80
2019-04-23T06:57:39.731Z,6.37
2019-04-23T06:59:55.597Z,6.12
2019-04-23T07:02:25.903Z,6.22
2019-04-23T07:05:03.243Z,6.58
2019-04-23T07:10:11.401Z,6.80
2019-04-23T07:12:45.934Z,5.92
2019-04-23T07:15:02.716Z,6.72
2019-04-23T07:17:34.545Z,5.90
2019-04-23T07:19:56.685Z,6.08
2019-04-23T07:22:21.687Z,5.97
2019-04-23T07:24:54.657Z,6.33
2019-04-23T07:27:30.107Z,6.28
2019-04-23T07:29:58.829Z,5.85
2019-04-23T07:32:15.194Z,6.05
2019-04-23T07:34:58.776Z,6.17
2019-04-23T07:37:17.356Z,5.62
2019-04-23T07:39:57.059Z,5.65
2019-04-23T07:42:24.810Z,6.22
2019-04-23T07:44:54.534Z,6.40
2019-04-23T07:49:49.354Z,5.67
2019-04-23T07:54:58.755Z,5.47
2019-04-23T07:59:51.721Z,5.53
2019-04-23T08:02:19.985Z,5.87
2019-04-23T08:04:57.945Z,5.90
2019-04-23T08:07:14.738Z,5.80
2019-04-23T08:09:51.398Z,5.45
2019-04-23T08:12:21.662Z,5.50
2019-04-23T08:14:48.062Z,5.65
2019-04-23T08:17:10.758Z,5.78
2019-04-23T08:19:49.079Z,5.60
2019-04-23T08:22:20.433Z,5.33
2019-04-23T08:24:45.408Z,6.42
2019-04-23T08:27:13.089Z,5.47
2019-04-23T08:29:30.412Z,5.50
2019-04-23T08:32:11.843Z,5.62
2019-04-23T08:34:48.409Z,5.65
2019-04-23T08:37:09.341Z,5.28
2019-04-23T08:39:39.749Z,5.53
2019-04-23T08:44:38.698Z,6.08
2019-04-23T08:47:09.850Z,5.30
2019-04-23T08:52:07.161Z,4.85
2019-04-23T08:54:42.945Z,5.72
2019-04-23T08:57:06.857Z,5.75
2019-04-23T09:02:18.207Z,5.08
2019-04-23T09:04:32.375Z,5.42
2019-04-23T09:07:04.835Z,5.28
2019-04-23T09:11:53.765Z,5.05
2019-04-23T09:14:15.322Z,5.30
2019-04-23T09:16:57.717Z,5.42
2019-04-23T09:22:04.136Z,5.47
2019-04-23T09:24:20.101Z,4.95
2019-04-23T09:27:03.862Z,5.72
2019-04-23T09:29:30.540Z,4.80
2019-04-23T09:32:18.447Z,4.83
2019-04-23T09:34:19.335Z,5.35
2019-04-23T09:36:51.090Z,4.62
2019-04-23T09:39:22.535Z,4.45
2019-04-23T09:41:48.409Z,4.67
2019-04-23T09:44:41.457Z,5.12
2019-04-23T09:46:57.301Z,5.25
2019-04-23T09:49:24.037Z,4.20
2019-04-23T09:51:58.965Z,4.90
2019-04-23T09:54:32.574Z,4.70
2019-04-23T10:01:37.750Z,4.75
2019-04-23T10:04:00.274Z,4.97
2019-04-23T10:06:22.623Z,4.47
2019-04-23T10:08:52.226Z,4.78
2019-04-23T10:11:16.097Z,4.80
2019-04-23T10:13:45.091Z,4.85
2019-04-23T10:16:17.087Z,4.87
2019-04-23T10:18:42.402Z,4.90
2019-04-23T10:21:11.203Z,4.75
2019-04-23T10:23:39.117Z,5.08
2019-04-23T10:26:07.857Z,5.08
2019-04-23T10:28:35.921Z,4.70
2019-04-23T10:31:04.898Z,4.20
2019-04-23T10:33:32.627Z,4.12
2019-04-23T10:36:06.040Z,4.17
2019-04-23T10:38:30.750Z,3.98
2019-04-23T10:41:00.132Z,4.12
2019-04-23T10:43:30.860Z,4.28
2019-04-23T10:46:16.922Z,4.45
2019-04-23T10:49:00.718Z,5.17
2019-04-23T10:51:29.099Z,4.65
2019-04-23T10:53:52.070Z,4.45
2019-04-23T10:56:31.006Z,4.53
2019-04-23T10:58:45.529Z,4.97
2019-04-23T11:01:22.714Z,4.90
2019-04-23T11:06:25.259Z,5.00
2019-04-23T11:08:49.833Z,4.90
2019-04-23T11:11:23.944Z,4.50
2019-04-23T11:13:53.040Z,4.78
2019-04-23T11:21:25.601Z,4.83
2019-04-23T11:26:24.732Z,4.53
2019-04-23T11:31:26.389Z,3.85
2019-04-23T11:33:46.092Z,4.17
2019-04-23T11:36:43.476Z,4.42
2019-04-23T11:38:54.428Z,4.80
2019-04-23T11:41:21.229Z,4.67
2019-04-23T11:43:39.433Z,4.53
2019-04-23T11:46:32.264Z,4.20
2019-04-23T11:48:51.341Z,4.28
2019-04-23T11:53:44.465Z,4.00
2019-04-23T11:56:12.134Z,4.28
2019-04-23T12:01:34.815Z,3.58
2019-04-23T12:03:53.936Z,3.90
2019-04-23T12:08:37.804Z,4.62
2019-04-23T12:11:35.477Z,3.70
2019-04-23T12:13:45.178Z,3.50
2019-04-23T12:16:10.564Z,3.72
2019-04-23T12:20:56.718Z,3.70
2019-04-23T12:23:40.550Z,3.00
2019-04-23T12:26:06.635Z,3.37
2019-04-23T12:28:30.166Z,4.12
2019-04-23T12:30:59.318Z,3.83
2019-04-23T12:33:36.132Z,5.08
2019-04-23T12:35:49.994Z,3.50
2019-04-23T12:38:28.290Z,3.72
2019-04-23T12:40:56.401Z,3.52
2019-04-23T12:43:29.486Z,4.10
2019-04-23T12:45:47.051Z,3.75
2019-04-23T12:48:35.017Z,3.60
2019-04-23T12:51:07.634Z,4.17
2019-04-23T12:55:55.689Z,4.40
2019-04-23T12:58:28.555Z,3.85
2019-04-23T13:00:45.809Z,4.37
2019-04-23T13:03:37.182Z,4.58
2019-04-23T13:05:49.115Z,4.20
2019-04-23T13:08:28.997Z,4.37
2019-04-23T13:10:45.213Z,4.47
2019-04-23T13:13:24.271Z,5.47
2019-04-23T13:15:48.953Z,4.72
2019-04-23T13:18:17.325Z,4.72
2019-04-23T13:23:17.004Z,5.20
2019-04-23T13:25:52.825Z,5.58
2019-04-23T13:28:19.716Z,5.55
2019-04-23T13:30:46.830Z,5.08
2019-04-23T13:33:21.859Z,4.92
2019-04-23T13:38:15.806Z,4.50
2019-04-23T13:41:01.355Z,5.45
2019-04-23T13:43:19.408Z,5.08
2019-04-23T13:53:18.579Z,4.85
2019-04-23T13:55:42.439Z,4.40
2019-04-23T14:03:11.207Z,4.80
2019-04-23T14:05:45.479Z,4.33
2019-04-23T14:08:13.858Z,5.08
2019-04-23T14:10:40.050Z,3.55
2019-04-23T14:13:37.349Z,4.30
2019-04-23T14:15:46.158Z,3.90
2019-04-23T14:18:50.589Z,4.22
2019-04-23T14:20:31.629Z,3.77
2019-04-23T14:23:10.742Z,3.90
2019-04-23T14:25:43.227Z,3.33
2019-04-23T14:28:17.537Z,3.12
2019-04-23T14:30:38.418Z,3.30
2019-04-23T14:33:15.479Z,3.92
2019-04-23T14:46:11.379Z,3.98
2019-04-23T14:53:16.252Z,2.80
2019-04-23T14:58:20.713Z,4.08
2019-04-23T15:00:41.620Z,3.37
2019-04-23T15:03:25.241Z,3.45
2019-04-23T15:08:12.049Z,3.50
2019-04-23T15:10:42.835Z,3.30
2019-04-23T15:13:06.855Z,3.65
2019-04-23T15:15:34.389Z,2.85
2019-04-23T15:18:04.550Z,2.90
2019-04-23T15:20:39.234Z,2.60
2019-04-23T15:23:25.677Z,2.60
2019-04-23T15:26:05.937Z,2.62
2019-04-23T15:28:06.959Z,2.27
2019-04-23T15:30:27.617Z,1.60
2019-04-23T15:35:39.691Z,1.80
2019-04-23T15:40:36.367Z,2.42
2019-04-23T15:43:09.061Z,2.17
2019-04-23T15:45:38.131Z,2.62
2019-04-23T15:55:27.391Z,2.52
2019-04-23T15:58:09.907Z,2.52
2019-04-23T16:00:30.713Z,4.08
2019-04-23T16:02:35.706Z,2.40
2019-04-23T16:05:07.469Z,2.40
2019-04-23T16:07:54.985Z,2.90
2019-04-23T16:10:44.913Z,2.30
2019-04-23T16:13:10.901Z,3.55
2019-04-23T16:15:35.770Z,2.90
2019-04-23T16:18:13.902Z,3.02
2019-04-23T16:20:40.867Z,2.80
2019-04-23T16:22:57.843Z,2.90
2019-04-23T16:25:32.433Z,2.85
2019-04-23T16:28:03.258Z,2.50
2019-04-23T16:30:36.474Z,3.25
2019-04-23T16:33:10.458Z,2.40
2019-04-23T16:38:18.503Z,2.85
2019-04-23T16:43:08.609Z,2.35
2019-04-23T16:45:31.650Z,2.83
2019-04-23T16:48:17.132Z,3.15
2019-04-23T16:50:41.129Z,3.05
2019-04-23T16:53:11.235Z,4.47
2019-04-23T16:58:11.954Z,3.52
2019-04-23T17:00:31.814Z,3.10
2019-04-23T17:03:12.383Z,3.33
2019-04-23T17:05:34.011Z,3.70
2019-04-23T17:08:23.305Z,3.47
2019-04-23T17:10:28.396Z,3.75
2019-04-23T17:13:06.384Z,3.45
2019-04-23T17:15:27.464Z,3.35
2019-04-23T17:17:56.039Z,3.45
2019-04-23T17:22:59.066Z,3.85
2019-04-23T17:27:58.949Z,5.58
2019-04-23T17:33:04.145Z,5.78
2019-04-23T17:35:24.363Z,5.53
2019-04-23T17:37:48.671Z,5.12
2019-04-23T17:40:17.811Z,4.67
2019-04-23T17:42:43.808Z,5.35
2019-04-23T17:45:30.784Z,4.20
2019-04-23T17:47:51.735Z,4.10
2019-04-23T17:50:26.924Z,4.15
2019-04-23T17:53:00.935Z,4.62
2019-04-23T17:55:22.404Z,4.67
2019-04-23T17:57:59.009Z,5.83
2019-04-23T18:00:41.018Z,5.12
2019-04-23T18:03:02.758Z,5.10
2019-04-23T18:05:19.027Z,4.22
2019-04-23T18:08:05.223Z,4.45
2019-04-23T18:12:51.741Z,4.12
2019-04-23T18:15:15.945Z,5.40
2019-04-23T18:18:02.451Z,4.47
2019-04-23T18:20:23.127Z,4.37
2019-04-23T18:22:55.778Z,4.03
2019-04-23T18:25:18.029Z,4.28
2019-04-23T18:27:48.331Z,4.12
2019-04-23T18:30:19.124Z,3.87
2019-04-23T18:32:58.728Z,4.17
2019-04-23T18:35:19.536Z,4.60
2019-04-23T18:37:46.452Z,4.62
2019-04-23T18:40:06.725Z,4.42
2019-04-23T18:45:20.720Z,4.45
2019-04-23T18:47:45.731Z,4.62
2019-04-23T18:50:15.540Z,4.55
2019-04-23T18:52:50.946Z,4.60
2019-04-23T18:55:16.654Z,4.50
2019-04-23T18:57:42.076Z,4.55
2019-04-23T19:00:18.616Z,5.97
2019-04-23T19:02:55.102Z,4.65
2019-04-23T19:05:15.387Z,4.55
2019-04-23T19:12:36.010Z,4.00
2019-04-23T19:15:17.142Z,4.58
2019-04-23T19:20:01.004Z,4.92
2019-04-23T19:22:38.067Z,5.08
2019-04-23T19:25:01.603Z,5.37
2019-04-23T19:27:37.756Z,5.67
2019-04-23T19:30:05.568Z,5.90
2019-04-23T19:32:38.468Z,5.15
2019-04-23T19:35:04.258Z,4.92
2019-04-23T19:37:44.111Z,5.65
2019-04-23T19:39:53.255Z,5.33
2019-04-23T19:42:26.621Z,4.67
2019-04-23T19:44:53.939Z,6.55
2019-04-23T19:47:37.745Z,5.53
2019-04-23T19:50:17.970Z,4.85
2019-04-23T19:52:36.568Z,5.62
2019-04-23T19:55:04.891Z,4.53
2019-04-23T19:57:35.946Z,5.42
2019-04-23T20:00:28.779Z,5.10
2019-04-23T20:02:32.348Z,4.80
2019-04-23T20:12:25.419Z,4.95
2019-04-23T20:14:54.347Z,6.40
2019-04-23T20:19:48.133Z,5.85
2019-04-23T20:22:25.461Z,4.62
2019-04-23T20:25:05.609Z,4.42
2019-04-23T20:27:18.463Z,4.90
2019-04-23T20:30:04.923Z,5.33
2019-04-23T20:32:57.993Z,4.72
2019-04-23T20:37:12.639Z,4.62
2019-04-23T20:39:47.099Z,4.12
2019-04-23T20:44:57.177Z,4.45
2019-04-23T20:49:44.191Z,4.40
2019-04-23T20:52:10.483Z,4.40
2019-04-23T20:57:14.315Z,4.37
2019-04-23T20:59:50.014Z,5.28
2019-04-23T21:02:22.353Z,4.45
2019-04-23T21:04:51.071Z,4.47
2019-04-23T21:07:11.319Z,4.05
2019-04-23T21:09:57.110Z,4.42
2019-04-23T21:12:16.265Z,4.40
2019-04-23T21:14:57.555Z,4.30
2019-04-23T21:17:05.404Z,4.35
2019-04-23T21:19:50.765Z,4.25
2019-04-23T21:24:42.802Z,4.12
2019-04-23T21:27:10.612Z,4.70
2019-04-23T21:29:43.277Z,4.80
2019-04-23T21:32:13.210Z,4.80
2019-04-23T21:34:34.198Z,4.62
2019-04-23T21:36:58.477Z,4.20
2019-04-23T21:39:40.721Z,4.80
2019-04-23T21:44:26.743Z,4.97
2019-04-23T21:47:01.284Z,5.28
2019-04-23T21:54:30.735Z,5.15
2019-04-23T21:57:14.731Z,4.92
2019-04-23T21:59:27.517Z,5.20
2019-04-23T22:02:03.999Z,5.00
2019-04-23T22:04:33.568Z,5.37
2019-04-23T22:06:56.063Z,4.60
2019-04-23T22:09:27.205Z,4.80
2019-04-23T22:12:08.762Z,5.12
2019-04-23T22:14:27.128Z,4.78
2019-04-23T22:17:09.608Z,4.90
2019-04-23T22:19:42.195Z,4.80
2019-04-23T22:26:53.446Z,4.75
2019-04-23T22:31:51.241Z,5.03
2019-04-23T22:34:22.066Z,4.37
2019-04-23T22:36:56.362Z,4.65
2019-04-23T22:39:18.534Z,4.45
2019-04-23T22:42:00.669Z,4.47
2019-04-23T22:49:20.089Z,5.20
2019-04-23T22:56:50.600Z,4.47
2019-04-23T23:01:48.920Z,4.55
2019-04-23T23:04:13.449Z,4.42
2019-04-23T23:06:50.637Z,4.47
2019-04-23T23:09:18.659Z,4.22
2019-04-23T23:11:47.618Z,4.75
2019-04-23T23:14:16.735Z,4.42
2019-04-23T23:16:39.287Z,4.60
2019-04-23T23:19:15.003Z,4.50
2019-04-23T23:21:51.548Z,4.10
2019-04-23T23:24:06.214Z,4.50
2019-04-23T23:26:42.177Z,4.60
2019-04-23T23:29:00.866Z,5.03
2019-04-23T23:31:38.351Z,4.20
2019-04-23T23:36:38.853Z,4.80
2019-04-23T23:39:06.835Z,4.72
2019-04-23T23:41:33.783Z,4.08
2019-04-23T23:46:37.483Z,4.80
2019-04-23T23:51:30.911Z,4.20
2019-04-23T23:54:05.067Z,4.17
2019-04-23T23:56:20.578Z,4.50
2019-04-23T23:59:03.865Z,3.92
